sensor_id;sensor_type;location;lat;lon;timestamp;P1;durP1;ratioP1;P2;durP2;ratioP2
21657;SDS011;10990;48.174;9.782;2023-03-31T00:00:21;7.10;;;3.07;;
21657;SDS011;10990;48.174;9.782;2023-03-31T00:02:50;5.80;;;2.93;;
21657;SDS011;10990;48.174;9.782;2023-03-31T00:05:18;6.50;;;3.20;;
21657;SDS011;10990;48.174;9.782;2023-03-31T00:07:52;8.33;;;3.53;;
21657;SDS011;10990;48.174;9.782;2023-03-31T00:10:19;6.00;;;3.20;;
21657;SDS011;10990;48.174;9.782;2023-03-31T00:12:46;7.73;;;3.17;;
21657;SDS011;10990;48.174;9.782;2023-03-31T00:15:13;6.30;;;3.10;;
21657;SDS011;10990;48.174;9.782;2023-03-31T00:17:40;6.10;;;3.20;;
21657;SDS011;10990;48.174;9.782;2023-03-31T00:20:09;9.10;;;3.67;;
21657;SDS011;10990;48.174;9.782;2023-03-31T00:22:36;6.77;;;3.40;;
21657;SDS011;10990;48.174;9.782;2023-03-31T00:25:07;6.10;;;2.97;;
21657;SDS011;10990;48.174;9.782;2023-03-31T00:27:34;6.40;;;2.93;;
21657;SDS011;10990;48.174;9.782;2023-03-31T00:30:04;6.07;;;3.43;;
21657;SDS011;10990;48.174;9.782;2023-03-31T00:32:32;7.33;;;3.40;;
21657;SDS011;10990;48.174;9.782;2023-03-31T00:34:58;7.87;;;3.30;;
21657;SDS011;10990;48.174;9.782;2023-03-31T00:37:28;7.10;;;2.93;;
21657;SDS011;10990;48.174;9.782;2023-03-31T00:39:55;9.57;;;4.13;;
21657;SDS011;10990;48.174;9.782;2023-03-31T00:42:22;10.50;;;4.40;;
21657;SDS011;10990;48.174;9.782;2023-03-31T00:47:51;8.67;;;3.77;;
21657;SDS011;10990;48.174;9.782;2023-03-31T00:50:21;7.83;;;3.60;;
21657;SDS011;10990;48.174;9.782;2023-03-31T00:52:55;11.93;;;4.30;;
21657;SDS011;10990;48.174;9.782;2023-03-31T00:55:27;10.67;;;4.20;;
21657;SDS011;10990;48.174;9.782;2023-03-31T00:57:58;6.83;;;3.90;;
21657;SDS011;10990;48.174;9.782;2023-03-31T01:00:28;7.77;;;3.90;;
21657;SDS011;10990;48.174;9.782;2023-03-31T01:02:55;7.70;;;4.20;;
21657;SDS011;10990;48.174;9.782;2023-03-31T01:05:26;8.57;;;4.60;;
21657;SDS011;10990;48.174;9.782;2023-03-31T01:07:58;10.13;;;4.23;;
21657;SDS011;10990;48.174;9.782;2023-03-31T01:10:27;11.90;;;4.57;;
21657;SDS011;10990;48.174;9.782;2023-03-31T01:13:02;10.33;;;4.43;;
21657;SDS011;10990;48.174;9.782;2023-03-31T01:15:30;11.07;;;4.60;;
21657;SDS011;10990;48.174;9.782;2023-03-31T01:17:56;7.93;;;3.93;;
21657;SDS011;10990;48.174;9.782;2023-03-31T01:20:27;9.70;;;4.20;;
21657;SDS011;10990;48.174;9.782;2023-03-31T01:23:10;9.53;;;4.43;;
21657;SDS011;10990;48.174;9.782;2023-03-31T01:26:02;8.07;;;3.93;;
21657;SDS011;10990;48.174;9.782;2023-03-31T01:28:52;7.40;;;4.27;;
21657;SDS011;10990;48.174;9.782;2023-03-31T01:34:31;8.43;;;4.40;;
21657;SDS011;10990;48.174;9.782;2023-03-31T01:37:34;9.43;;;4.40;;
21657;SDS011;10990;48.174;9.782;2023-03-31T01:40:31;8.90;;;4.33;;
21657;SDS011;10990;48.174;9.782;2023-03-31T01:43:05;7.70;;;4.00;;
21657;SDS011;10990;48.174;9.782;2023-03-31T01:45:39;8.63;;;4.50;;
21657;SDS011;10990;48.174;9.782;2023-03-31T01:48:14;10.33;;;4.70;;
21657;SDS011;10990;48.174;9.782;2023-03-31T01:50:45;9.23;;;4.40;;
21657;SDS011;10990;48.174;9.782;2023-03-31T01:53:17;9.53;;;4.33;;
21657;SDS011;10990;48.174;9.782;2023-03-31T01:55:52;6.60;;;3.83;;
21657;SDS011;10990;48.174;9.782;2023-03-31T01:58:28;10.30;;;4.40;;
21657;SDS011;10990;48.174;9.782;2023-03-31T02:01:02;10.63;;;4.17;;
21657;SDS011;10990;48.174;9.782;2023-03-31T02:03:34;7.10;;;3.97;;
21657;SDS011;10990;48.174;9.782;2023-03-31T02:06:06;6.87;;;4.00;;
21657;SDS011;10990;48.174;9.782;2023-03-31T02:08:39;7.37;;;4.20;;
21657;SDS011;10990;48.174;9.782;2023-03-31T02:11:11;11.57;;;4.20;;
21657;SDS011;10990;48.174;9.782;2023-03-31T02:13:39;9.93;;;4.23;;
21657;SDS011;10990;48.174;9.782;2023-03-31T02:16:10;8.67;;;4.20;;
21657;SDS011;10990;48.174;9.782;2023-03-31T02:18:40;9.73;;;4.13;;
21657;SDS011;10990;48.174;9.782;2023-03-31T02:21:09;10.40;;;4.50;;
21657;SDS011;10990;48.174;9.782;2023-03-31T02:23:38;8.53;;;4.23;;
21657;SDS011;10990;48.174;9.782;2023-03-31T02:26:07;11.23;;;4.60;;
21657;SDS011;10990;48.174;9.782;2023-03-31T02:28:39;10.33;;;4.23;;
21657;SDS011;10990;48.174;9.782;2023-03-31T02:31:08;7.80;;;4.40;;
21657;SDS011;10990;48.174;9.782;2023-03-31T02:33:43;9.73;;;4.17;;
21657;SDS011;10990;48.174;9.782;2023-03-31T02:36:10;10.93;;;4.70;;
21657;SDS011;10990;48.174;9.782;2023-03-31T02:38:38;10.57;;;4.30;;
21657;SDS011;10990;48.174;9.782;2023-03-31T02:41:10;10.03;;;4.40;;
21657;SDS011;10990;48.174;9.782;2023-03-31T02:43:38;7.97;;;4.10;;
21657;SDS011;10990;48.174;9.782;2023-03-31T02:46:05;10.37;;;4.27;;
21657;SDS011;10990;48.174;9.782;2023-03-31T02:48:32;6.50;;;4.20;;
21657;SDS011;10990;48.174;9.782;2023-03-31T02:51:16;9.27;;;4.23;;
21657;SDS011;10990;48.174;9.782;2023-03-31T02:54:09;7.50;;;4.00;;
21657;SDS011;10990;48.174;9.782;2023-03-31T02:57:00;7.20;;;4.20;;
21657;SDS011;10990;48.174;9.782;2023-03-31T02:59:46;7.97;;;4.20;;
21657;SDS011;10990;48.174;9.782;2023-03-31T03:02:25;10.37;;;4.67;;
21657;SDS011;10990;48.174;9.782;2023-03-31T03:05:16;10.13;;;4.53;;
21657;SDS011;10990;48.174;9.782;2023-03-31T03:08:10;13.20;;;5.30;;
21657;SDS011;10990;48.174;9.782;2023-03-31T03:10:49;11.70;;;5.30;;
21657;SDS011;10990;48.174;9.782;2023-03-31T03:13:25;13.40;;;5.40;;
21657;SDS011;10990;48.174;9.782;2023-03-31T03:15:59;10.50;;;5.27;;
21657;SDS011;10990;48.174;9.782;2023-03-31T03:18:32;11.80;;;5.17;;
21657;SDS011;10990;48.174;9.782;2023-03-31T03:20:59;11.33;;;5.40;;
21657;SDS011;10990;48.174;9.782;2023-03-31T03:23:25;9.87;;;4.90;;
21657;SDS011;10990;48.174;9.782;2023-03-31T03:25:52;9.60;;;5.07;;
21657;SDS011;10990;48.174;9.782;2023-03-31T03:28:19;8.47;;;4.97;;
21657;SDS011;10990;48.174;9.782;2023-03-31T03:30:46;10.57;;;4.87;;
21657;SDS011;10990;48.174;9.782;2023-03-31T03:33:14;9.53;;;5.03;;
21657;SDS011;10990;48.174;9.782;2023-03-31T03:35:42;10.20;;;5.27;;
21657;SDS011;10990;48.174;9.782;2023-03-31T03:38:08;12.60;;;5.67;;
21657;SDS011;10990;48.174;9.782;2023-03-31T03:40:35;11.30;;;4.97;;
21657;SDS011;10990;48.174;9.782;2023-03-31T03:43:02;7.43;;;4.70;;
21657;SDS011;10990;48.174;9.782;2023-03-31T03:45:29;10.97;;;6.40;;
21657;SDS011;10990;48.174;9.782;2023-03-31T03:47:56;10.20;;;5.87;;
21657;SDS011;10990;48.174;9.782;2023-03-31T03:50:24;9.73;;;5.83;;
21657;SDS011;10990;48.174;9.782;2023-03-31T03:52:51;11.07;;;5.87;;
21657;SDS011;10990;48.174;9.782;2023-03-31T03:55:17;9.73;;;5.17;;
21657;SDS011;10990;48.174;9.782;2023-03-31T03:57:44;11.20;;;5.07;;
21657;SDS011;10990;48.174;9.782;2023-03-31T04:00:11;8.77;;;4.80;;
21657;SDS011;10990;48.174;9.782;2023-03-31T04:02:40;8.67;;;4.60;;
21657;SDS011;10990;48.174;9.782;2023-03-31T04:05:07;8.80;;;4.97;;
21657;SDS011;10990;48.174;9.782;2023-03-31T04:07:36;10.53;;;4.90;;
21657;SDS011;10990;48.174;9.782;2023-03-31T04:10:03;10.93;;;5.23;;
21657;SDS011;10990;48.174;9.782;2023-03-31T04:12:30;11.27;;;5.23;;
21657;SDS011;10990;48.174;9.782;2023-03-31T04:14:59;9.53;;;5.30;;
21657;SDS011;10990;48.174;9.782;2023-03-31T04:17:26;10.87;;;5.37;;
21657;SDS011;10990;48.174;9.782;2023-03-31T04:19:59;8.40;;;4.80;;
21657;SDS011;10990;48.174;9.782;2023-03-31T04:22:30;8.67;;;5.03;;
21657;SDS011;10990;48.174;9.782;2023-03-31T04:25:01;11.17;;;5.73;;
21657;SDS011;10990;48.174;9.782;2023-03-31T04:27:28;9.77;;;5.13;;
21657;SDS011;10990;48.174;9.782;2023-03-31T04:29:55;8.63;;;5.07;;
21657;SDS011;10990;48.174;9.782;2023-03-31T04:32:22;8.73;;;4.97;;
21657;SDS011;10990;48.174;9.782;2023-03-31T04:34:49;8.93;;;5.17;;
21657;SDS011;10990;48.174;9.782;2023-03-31T04:37:16;12.30;;;5.20;;
21657;SDS011;10990;48.174;9.782;2023-03-31T04:39:42;12.23;;;5.33;;
21657;SDS011;10990;48.174;9.782;2023-03-31T04:42:16;12.57;;;5.43;;
21657;SDS011;10990;48.174;9.782;2023-03-31T04:44:42;11.27;;;5.50;;
21657;SDS011;10990;48.174;9.782;2023-03-31T04:47:09;12.03;;;5.20;;
21657;SDS011;10990;48.174;9.782;2023-03-31T04:49:36;11.43;;;5.37;;
21657;SDS011;10990;48.174;9.782;2023-03-31T04:52:02;8.40;;;4.63;;
21657;SDS011;10990;48.174;9.782;2023-03-31T04:54:29;9.47;;;4.57;;
21657;SDS011;10990;48.174;9.782;2023-03-31T04:56:56;9.37;;;5.20;;
21657;SDS011;10990;48.174;9.782;2023-03-31T04:59:24;10.67;;;4.97;;
21657;SDS011;10990;48.174;9.782;2023-03-31T05:01:51;10.93;;;4.83;;
21657;SDS011;10990;48.174;9.782;2023-03-31T05:04:17;14.27;;;5.20;;
21657;SDS011;10990;48.174;9.782;2023-03-31T05:06:44;10.63;;;5.63;;
21657;SDS011;10990;48.174;9.782;2023-03-31T05:09:11;11.60;;;5.47;;
21657;SDS011;10990;48.174;9.782;2023-03-31T05:11:38;11.90;;;5.43;;
21657;SDS011;10990;48.174;9.782;2023-03-31T05:14:04;11.60;;;5.90;;
21657;SDS011;10990;48.174;9.782;2023-03-31T05:16:32;9.97;;;5.67;;
21657;SDS011;10990;48.174;9.782;2023-03-31T05:19:00;9.60;;;6.20;;
21657;SDS011;10990;48.174;9.782;2023-03-31T05:21:26;10.10;;;5.40;;
21657;SDS011;10990;48.174;9.782;2023-03-31T05:23:54;13.07;;;6.00;;
21657;SDS011;10990;48.174;9.782;2023-03-31T05:26:22;14.60;;;5.60;;
21657;SDS011;10990;48.174;9.782;2023-03-31T05:28:49;11.73;;;5.40;;
21657;SDS011;10990;48.174;9.782;2023-03-31T05:31:16;12.43;;;5.17;;
21657;SDS011;10990;48.174;9.782;2023-03-31T05:33:44;13.53;;;6.30;;
21657;SDS011;10990;48.174;9.782;2023-03-31T05:36:13;8.53;;;5.30;;
21657;SDS011;10990;48.174;9.782;2023-03-31T05:38:40;13.27;;;5.97;;
21657;SDS011;10990;48.174;9.782;2023-03-31T05:41:08;11.20;;;5.37;;
21657;SDS011;10990;48.174;9.782;2023-03-31T05:43:36;11.10;;;5.80;;
21657;SDS011;10990;48.174;9.782;2023-03-31T05:46:03;8.90;;;5.20;;
21657;SDS011;10990;48.174;9.782;2023-03-31T05:48:30;10.67;;;4.87;;
21657;SDS011;10990;48.174;9.782;2023-03-31T05:50:58;10.47;;;5.73;;
21657;SDS011;10990;48.174;9.782;2023-03-31T05:53:26;8.50;;;4.87;;
21657;SDS011;10990;48.174;9.782;2023-03-31T05:55:55;12.33;;;4.93;;
21657;SDS011;10990;48.174;9.782;2023-03-31T05:58:23;10.40;;;5.47;;
21657;SDS011;10990;48.174;9.782;2023-03-31T06:00:58;11.17;;;5.10;;
21657;SDS011;10990;48.174;9.782;2023-03-31T06:03:26;9.67;;;4.63;;
21657;SDS011;10990;48.174;9.782;2023-03-31T06:05:53;8.90;;;4.67;;
21657;SDS011;10990;48.174;9.782;2023-03-31T06:08:21;11.57;;;5.50;;
21657;SDS011;10990;48.174;9.782;2023-03-31T06:10:48;8.40;;;4.90;;
21657;SDS011;10990;48.174;9.782;2023-03-31T06:13:15;9.70;;;4.93;;
21657;SDS011;10990;48.174;9.782;2023-03-31T06:15:42;10.40;;;4.97;;
21657;SDS011;10990;48.174;9.782;2023-03-31T06:18:08;10.33;;;5.17;;
21657;SDS011;10990;48.174;9.782;2023-03-31T06:20:35;9.43;;;4.97;;
21657;SDS011;10990;48.174;9.782;2023-03-31T06:23:02;9.33;;;4.97;;
21657;SDS011;10990;48.174;9.782;2023-03-31T06:25:31;8.93;;;5.17;;
21657;SDS011;10990;48.174;9.782;2023-03-31T06:27:58;9.60;;;5.40;;
21657;SDS011;10990;48.174;9.782;2023-03-31T06:30:24;13.97;;;5.40;;
21657;SDS011;10990;48.174;9.782;2023-03-31T06:32:51;9.23;;;5.10;;
21657;SDS011;10990;48.174;9.782;2023-03-31T06:35:18;10.57;;;5.07;;
21657;SDS011;10990;48.174;9.782;2023-03-31T06:37:45;9.23;;;5.10;;
21657;SDS011;10990;48.174;9.782;2023-03-31T06:40:11;11.30;;;5.70;;
21657;SDS011;10990;48.174;9.782;2023-03-31T06:42:40;8.80;;;5.27;;
21657;SDS011;10990;48.174;9.782;2023-03-31T06:45:07;12.70;;;5.90;;
21657;SDS011;10990;48.174;9.782;2023-03-31T06:47:34;12.20;;;6.57;;
21657;SDS011;10990;48.174;9.782;2023-03-31T06:50:02;12.73;;;6.47;;
21657;SDS011;10990;48.174;9.782;2023-03-31T06:52:29;17.57;;;7.40;;
21657;SDS011;10990;48.174;9.782;2023-03-31T06:54:56;13.30;;;6.57;;
21657;SDS011;10990;48.174;9.782;2023-03-31T06:57:24;13.30;;;6.47;;
21657;SDS011;10990;48.174;9.782;2023-03-31T06:59:52;11.20;;;6.37;;
21657;SDS011;10990;48.174;9.782;2023-03-31T07:02:19;9.10;;;5.60;;
21657;SDS011;10990;48.174;9.782;2023-03-31T07:04:46;13.60;;;6.40;;
21657;SDS011;10990;48.174;9.782;2023-03-31T07:07:13;12.30;;;6.07;;
21657;SDS011;10990;48.174;9.782;2023-03-31T07:09:40;10.40;;;6.23;;
21657;SDS011;10990;48.174;9.782;2023-03-31T07:12:07;11.97;;;6.40;;
21657;SDS011;10990;48.174;9.782;2023-03-31T07:14:34;12.53;;;5.73;;
21657;SDS011;10990;48.174;9.782;2023-03-31T07:17:03;9.90;;;5.43;;
21657;SDS011;10990;48.174;9.782;2023-03-31T07:19:31;12.63;;;6.00;;
21657;SDS011;10990;48.174;9.782;2023-03-31T07:22:02;12.88;;;5.85;;
21657;SDS011;10990;48.174;9.782;2023-03-31T07:24:30;10.93;;;5.78;;
21657;SDS011;10990;48.174;9.782;2023-03-31T07:26:56;10.57;;;5.97;;
21657;SDS011;10990;48.174;9.782;2023-03-31T07:29:23;12.57;;;4.53;;
21657;SDS011;10990;48.174;9.782;2023-03-31T07:31:50;8.93;;;4.32;;
21657;SDS011;10990;48.174;9.782;2023-03-31T07:34:18;10.32;;;4.00;;
21657;SDS011;10990;48.174;9.782;2023-03-31T07:36:45;6.80;;;3.92;;
21657;SDS011;10990;48.174;9.782;2023-03-31T07:39:12;8.93;;;3.70;;
21657;SDS011;10990;48.174;9.782;2023-03-31T07:41:38;8.80;;;4.35;;
21657;SDS011;10990;48.174;9.782;2023-03-31T07:44:05;11.98;;;4.80;;
21657;SDS011;10990;48.174;9.782;2023-03-31T07:46:32;10.60;;;4.90;;
21657;SDS011;10990;48.174;9.782;2023-03-31T07:48:59;9.77;;;4.75;;
21657;SDS011;10990;48.174;9.782;2023-03-31T07:51:28;6.07;;;4.10;;
21657;SDS011;10990;48.174;9.782;2023-03-31T07:53:55;7.32;;;4.20;;
21657;SDS011;10990;48.174;9.782;2023-03-31T07:56:22;5.70;;;2.83;;
21657;SDS011;10990;48.174;9.782;2023-03-31T07:58:50;4.50;;;2.78;;
21657;SDS011;10990;48.174;9.782;2023-03-31T08:01:18;3.47;;;1.98;;
21657;SDS011;10990;48.174;9.782;2023-03-31T08:03:50;4.73;;;2.00;;
21657;SDS011;10990;48.174;9.782;2023-03-31T08:06:18;2.97;;;1.40;;
21657;SDS011;10990;48.174;9.782;2023-03-31T08:08:47;4.38;;;1.20;;
21657;SDS011;10990;48.174;9.782;2023-03-31T08:11:14;1.23;;;0.98;;
21657;SDS011;10990;48.174;9.782;2023-03-31T08:13:41;1.75;;;1.00;;
21657;SDS011;10990;48.174;9.782;2023-03-31T08:16:08;3.33;;;1.30;;
21657;SDS011;10990;48.174;9.782;2023-03-31T08:18:34;3.45;;;1.65;;
21657;SDS011;10990;48.174;9.782;2023-03-31T08:21:01;5.18;;;2.28;;
21657;SDS011;10990;48.174;9.782;2023-03-31T08:23:28;3.28;;;2.40;;
21657;SDS011;10990;48.174;9.782;2023-03-31T08:26:06;3.15;;;2.53;;
21657;SDS011;10990;48.174;9.782;2023-03-31T08:28:33;3.25;;;1.80;;
21657;SDS011;10990;48.174;9.782;2023-03-31T08:31:01;2.58;;;1.83;;
21657;SDS011;10990;48.174;9.782;2023-03-31T08:33:30;2.40;;;1.90;;
21657;SDS011;10990;48.174;9.782;2023-03-31T08:36:00;2.08;;;1.48;;
21657;SDS011;10990;48.174;9.782;2023-03-31T08:38:27;1.90;;;1.30;;
21657;SDS011;10990;48.174;9.782;2023-03-31T08:40:57;1.45;;;1.20;;
21657;SDS011;10990;48.174;9.782;2023-03-31T08:43:27;1.27;;;1.10;;
21657;SDS011;10990;48.174;9.782;2023-03-31T08:45:58;2.28;;;1.02;;
21657;SDS011;10990;48.174;9.782;2023-03-31T08:48:27;1.73;;;1.00;;
21657;SDS011;10990;48.174;9.782;2023-03-31T08:50:56;1.77;;;1.05;;
21657;SDS011;10990;48.174;9.782;2023-03-31T08:53:28;3.20;;;1.02;;
21657;SDS011;10990;48.174;9.782;2023-03-31T08:56:00;1.35;;;0.80;;
21657;SDS011;10990;48.174;9.782;2023-03-31T08:58:33;1.25;;;0.80;;
21657;SDS011;10990;48.174;9.782;2023-03-31T09:01:06;1.58;;;0.82;;
21657;SDS011;10990;48.174;9.782;2023-03-31T09:03:42;2.72;;;1.00;;
21657;SDS011;10990;48.174;9.782;2023-03-31T09:06:17;3.00;;;1.00;;
21657;SDS011;10990;48.174;9.782;2023-03-31T09:08:48;1.77;;;0.80;;
21657;SDS011;10990;48.174;9.782;2023-03-31T09:11:18;2.13;;;0.90;;
21657;SDS011;10990;48.174;9.782;2023-03-31T09:16:53;2.20;;;1.00;;
21657;SDS011;10990;48.174;9.782;2023-03-31T09:19:29;3.42;;;1.50;;
21657;SDS011;10990;48.174;9.782;2023-03-31T09:22:00;2.63;;;1.20;;
21657;SDS011;10990;48.174;9.782;2023-03-31T09:24:31;1.77;;;1.00;;
21657;SDS011;10990;48.174;9.782;2023-03-31T09:27:02;1.40;;;1.00;;
21657;SDS011;10990;48.174;9.782;2023-03-31T09:29:35;1.77;;;1.10;;
21657;SDS011;10990;48.174;9.782;2023-03-31T09:32:11;2.92;;;1.23;;
21657;SDS011;10990;48.174;9.782;2023-03-31T09:34:41;2.08;;;1.23;;
21657;SDS011;10990;48.174;9.782;2023-03-31T09:37:10;2.00;;;1.20;;
21657;SDS011;10990;48.174;9.782;2023-03-31T09:39:37;2.28;;;1.10;;
21657;SDS011;10990;48.174;9.782;2023-03-31T09:42:05;1.52;;;1.00;;
21657;SDS011;10990;48.174;9.782;2023-03-31T09:44:36;1.83;;;1.20;;
21657;SDS011;10990;48.174;9.782;2023-03-31T09:47:05;2.72;;;1.00;;
21657;SDS011;10990;48.174;9.782;2023-03-31T09:49:37;1.42;;;1.20;;
21657;SDS011;10990;48.174;9.782;2023-03-31T09:52:08;2.15;;;1.10;;
21657;SDS011;10990;48.174;9.782;2023-03-31T09:54:42;2.10;;;1.13;;
21657;SDS011;10990;48.174;9.782;2023-03-31T09:57:14;2.65;;;1.10;;
21657;SDS011;10990;48.174;9.782;2023-03-31T09:59:50;1.85;;;1.00;;
21657;SDS011;10990;48.174;9.782;2023-03-31T10:02:32;1.60;;;1.10;;
21657;SDS011;10990;48.174;9.782;2023-03-31T10:05:02;2.05;;;1.15;;
21657;SDS011;10990;48.174;9.782;2023-03-31T10:07:30;4.88;;;1.10;;
21657;SDS011;10990;48.174;9.782;2023-03-31T10:09:58;1.00;;;0.90;;
21657;SDS011;10990;48.174;9.782;2023-03-31T10:12:27;5.68;;;0.90;;
21657;SDS011;10990;48.174;9.782;2023-03-31T10:15:02;2.40;;;1.10;;
21657;SDS011;10990;48.174;9.782;2023-03-31T10:17:43;2.90;;;0.98;;
21657;SDS011;10990;48.174;9.782;2023-03-31T10:20:17;3.78;;;0.95;;
21657;SDS011;10990;48.174;9.782;2023-03-31T10:22:46;2.20;;;1.00;;
21657;SDS011;10990;48.174;9.782;2023-03-31T10:25:15;4.63;;;1.10;;
21657;SDS011;10990;48.174;9.782;2023-03-31T10:27:46;1.52;;;0.85;;
21657;SDS011;10990;48.174;9.782;2023-03-31T10:30:20;2.22;;;1.00;;
21657;SDS011;10990;48.174;9.782;2023-03-31T10:32:49;1.88;;;0.90;;
21657;SDS011;10990;48.174;9.782;2023-03-31T10:35:20;2.42;;;0.80;;
21657;SDS011;10990;48.174;9.782;2023-03-31T10:37:53;2.33;;;0.90;;
21657;SDS011;10990;48.174;9.782;2023-03-31T10:40:23;1.77;;;0.80;;
21657;SDS011;10990;48.174;9.782;2023-03-31T10:42:59;2.15;;;0.90;;
21657;SDS011;10990;48.174;9.782;2023-03-31T10:45:30;3.33;;;1.30;;
21657;SDS011;10990;48.174;9.782;2023-03-31T10:48:02;3.05;;;0.98;;
21657;SDS011;10990;48.174;9.782;2023-03-31T10:50:30;2.72;;;0.90;;
21657;SDS011;10990;48.174;9.782;2023-03-31T10:53:00;3.72;;;0.90;;
21657;SDS011;10990;48.174;9.782;2023-03-31T10:55:31;1.63;;;0.80;;
21657;SDS011;10990;48.174;9.782;2023-03-31T10:58:04;2.28;;;0.90;;
21657;SDS011;10990;48.174;9.782;2023-03-31T11:00:42;1.90;;;0.80;;
21657;SDS011;10990;48.174;9.782;2023-03-31T11:03:31;1.60;;;0.70;;
21657;SDS011;10990;48.174;9.782;2023-03-31T11:06:09;2.45;;;0.90;;
21657;SDS011;10990;48.174;9.782;2023-03-31T11:08:44;1.65;;;0.80;;
21657;SDS011;10990;48.174;9.782;2023-03-31T11:11:21;1.98;;;0.80;;
21657;SDS011;10990;48.174;9.782;2023-03-31T11:14:00;1.88;;;0.80;;
21657;SDS011;10990;48.174;9.782;2023-03-31T11:16:38;1.63;;;0.77;;
21657;SDS011;10990;48.174;9.782;2023-03-31T11:19:15;1.17;;;0.90;;
21657;SDS011;10990;48.174;9.782;2023-03-31T11:21:55;2.10;;;0.90;;
21657;SDS011;10990;48.174;9.782;2023-03-31T11:24:34;2.55;;;1.00;;
21657;SDS011;10990;48.174;9.782;2023-03-31T11:27:18;5.38;;;0.68;;
21657;SDS011;10990;48.174;9.782;2023-03-31T11:29:57;2.65;;;0.90;;
21657;SDS011;10990;48.174;9.782;2023-03-31T11:32:32;2.80;;;0.85;;
21657;SDS011;10990;48.174;9.782;2023-03-31T11:35:21;7.35;;;1.27;;
21657;SDS011;10990;48.174;9.782;2023-03-31T11:38:07;1.92;;;0.80;;
21657;SDS011;10990;48.174;9.782;2023-03-31T11:40:48;2.92;;;0.93;;
21657;SDS011;10990;48.174;9.782;2023-03-31T11:43:23;3.70;;;1.05;;
21657;SDS011;10990;48.174;9.782;2023-03-31T11:45:56;2.10;;;0.70;;
21657;SDS011;10990;48.174;9.782;2023-03-31T11:48:30;1.52;;;0.73;;
21657;SDS011;10990;48.174;9.782;2023-03-31T11:51:02;4.72;;;1.20;;
21657;SDS011;10990;48.174;9.782;2023-03-31T11:53:32;4.15;;;0.90;;
21657;SDS011;10990;48.174;9.782;2023-03-31T11:56:03;4.93;;;1.10;;
21657;SDS011;10990;48.174;9.782;2023-03-31T11:58:34;4.85;;;0.88;;
21657;SDS011;10990;48.174;9.782;2023-03-31T12:01:06;2.22;;;0.80;;
21657;SDS011;10990;48.174;9.782;2023-03-31T12:03:42;3.17;;;1.10;;
21657;SDS011;10990;48.174;9.782;2023-03-31T12:06:15;4.70;;;1.10;;
21657;SDS011;10990;48.174;9.782;2023-03-31T12:08:46;2.28;;;1.10;;
21657;SDS011;10990;48.174;9.782;2023-03-31T12:11:21;2.45;;;1.05;;
21657;SDS011;10990;48.174;9.782;2023-03-31T12:13:54;3.63;;;0.98;;
21657;SDS011;10990;48.174;9.782;2023-03-31T12:16:31;2.72;;;0.85;;
21657;SDS011;10990;48.174;9.782;2023-03-31T12:19:05;1.08;;;0.43;;
21657;SDS011;10990;48.174;9.782;2023-03-31T12:21:39;1.92;;;0.70;;
21657;SDS011;10990;48.174;9.782;2023-03-31T12:24:09;1.65;;;0.43;;
21657;SDS011;10990;48.174;9.782;2023-03-31T12:26:39;1.65;;;0.70;;
21657;SDS011;10990;48.174;9.782;2023-03-31T12:29:17;1.65;;;0.60;;
21657;SDS011;10990;48.174;9.782;2023-03-31T12:31:51;1.48;;;0.50;;
21657;SDS011;10990;48.174;9.782;2023-03-31T12:34:22;2.13;;;0.50;;
21657;SDS011;10990;48.174;9.782;2023-03-31T12:37:04;0.70;;;0.32;;
21657;SDS011;10990;48.174;9.782;2023-03-31T12:39:49;1.58;;;0.50;;
21657;SDS011;10990;48.174;9.782;2023-03-31T12:45:23;1.92;;;0.60;;
21657;SDS011;10990;48.174;9.782;2023-03-31T12:51:03;4.32;;;0.77;;
21657;SDS011;10990;48.174;9.782;2023-03-31T12:53:44;1.73;;;0.60;;
21657;SDS011;10990;48.174;9.782;2023-03-31T12:56:18;1.55;;;0.50;;
21657;SDS011;10990;48.174;9.782;2023-03-31T12:58:45;2.63;;;0.70;;
21657;SDS011;10990;48.174;9.782;2023-03-31T13:01:13;0.98;;;0.60;;
21657;SDS011;10990;48.174;9.782;2023-03-31T13:03:43;2.17;;;0.68;;
21657;SDS011;10990;48.174;9.782;2023-03-31T13:12:12;2.58;;;0.70;;
21657;SDS011;10990;48.174;9.782;2023-03-31T13:14:41;1.27;;;0.55;;
21657;SDS011;10990;48.174;9.782;2023-03-31T13:20:14;5.88;;;1.00;;
21657;SDS011;10990;48.174;9.782;2023-03-31T13:22:49;1.63;;;0.57;;
21657;SDS011;10990;48.174;9.782;2023-03-31T13:25:36;3.17;;;0.90;;
21657;SDS011;10990;48.174;9.782;2023-03-31T13:28:10;2.20;;;0.80;;
21657;SDS011;10990;48.174;9.782;2023-03-31T13:30:44;3.28;;;1.00;;
21657;SDS011;10990;48.174;9.782;2023-03-31T13:33:13;5.50;;;1.20;;
21657;SDS011;10990;48.174;9.782;2023-03-31T13:35:45;1.80;;;0.77;;
21657;SDS011;10990;48.174;9.782;2023-03-31T13:38:17;4.22;;;0.80;;
21657;SDS011;10990;48.174;9.782;2023-03-31T13:41:00;1.70;;;0.68;;
21657;SDS011;10990;48.174;9.782;2023-03-31T13:43:39;3.50;;;0.60;;
21657;SDS011;10990;48.174;9.782;2023-03-31T13:49:25;1.27;;;0.40;;
21657;SDS011;10990;48.174;9.782;2023-03-31T13:52:11;1.80;;;0.50;;
21657;SDS011;10990;48.174;9.782;2023-03-31T14:00:33;1.00;;;0.30;;
21657;SDS011;10990;48.174;9.782;2023-03-31T14:06:03;1.88;;;0.50;;
21657;SDS011;10990;48.174;9.782;2023-03-31T14:08:35;0.98;;;0.50;;
21657;SDS011;10990;48.174;9.782;2023-03-31T14:11:16;1.13;;;0.40;;
21657;SDS011;10990;48.174;9.782;2023-03-31T14:13:45;1.92;;;0.70;;
21657;SDS011;10990;48.174;9.782;2023-03-31T14:16:24;1.77;;;0.50;;
21657;SDS011;10990;48.174;9.782;2023-03-31T14:18:51;1.30;;;0.60;;
21657;SDS011;10990;48.174;9.782;2023-03-31T14:21:23;1.25;;;0.68;;
21657;SDS011;10990;48.174;9.782;2023-03-31T14:23:59;0.88;;;0.60;;
21657;SDS011;10990;48.174;9.782;2023-03-31T14:26:44;2.92;;;0.90;;
21657;SDS011;10990;48.174;9.782;2023-03-31T14:29:22;1.95;;;0.65;;
21657;SDS011;10990;48.174;9.782;2023-03-31T14:31:58;2.95;;;0.90;;
21657;SDS011;10990;48.174;9.782;2023-03-31T14:37:25;3.13;;;1.40;;
21657;SDS011;10990;48.174;9.782;2023-03-31T14:39:53;9.55;;;6.07;;
21657;SDS011;10990;48.174;9.782;2023-03-31T14:42:22;20.13;;;11.45;;
21657;SDS011;10990;48.174;9.782;2023-03-31T14:44:55;8.25;;;4.95;;
21657;SDS011;10990;48.174;9.782;2023-03-31T14:47:24;3.15;;;1.17;;
21657;SDS011;10990;48.174;9.782;2023-03-31T14:49:59;1.58;;;0.88;;
21657;SDS011;10990;48.174;9.782;2023-03-31T14:52:28;3.15;;;0.80;;
21657;SDS011;10990;48.174;9.782;2023-03-31T14:54:57;3.92;;;0.90;;
21657;SDS011;10990;48.174;9.782;2023-03-31T14:57:26;2.50;;;0.65;;
21657;SDS011;10990;48.174;9.782;2023-03-31T14:59:57;3.35;;;1.00;;
21657;SDS011;10990;48.174;9.782;2023-03-31T15:02:29;3.13;;;0.77;;
21657;SDS011;10990;48.174;9.782;2023-03-31T15:04:58;3.53;;;1.02;;
21657;SDS011;10990;48.174;9.782;2023-03-31T15:07:28;2.78;;;1.05;;
21657;SDS011;10990;48.174;9.782;2023-03-31T15:09:55;4.35;;;0.90;;
21657;SDS011;10990;48.174;9.782;2023-03-31T15:12:22;3.90;;;0.77;;
21657;SDS011;10990;48.174;9.782;2023-03-31T15:14:50;2.40;;;0.80;;
21657;SDS011;10990;48.174;9.782;2023-03-31T15:17:21;1.67;;;0.60;;
21657;SDS011;10990;48.174;9.782;2023-03-31T15:19:52;2.35;;;0.90;;
21657;SDS011;10990;48.174;9.782;2023-03-31T15:22:21;4.05;;;0.90;;
21657;SDS011;10990;48.174;9.782;2023-03-31T15:24:50;4.25;;;0.90;;
21657;SDS011;10990;48.174;9.782;2023-03-31T15:27:18;4.43;;;1.27;;
21657;SDS011;10990;48.174;9.782;2023-03-31T15:29:54;3.22;;;0.90;;
21657;SDS011;10990;48.174;9.782;2023-03-31T15:32:26;3.35;;;1.10;;
21657;SDS011;10990;48.174;9.782;2023-03-31T15:34:55;3.03;;;1.60;;
21657;SDS011;10990;48.174;9.782;2023-03-31T15:37:24;3.28;;;1.13;;
21657;SDS011;10990;48.174;9.782;2023-03-31T15:39:54;3.00;;;0.90;;
21657;SDS011;10990;48.174;9.782;2023-03-31T15:42:22;5.25;;;1.90;;
21657;SDS011;10990;48.174;9.782;2023-03-31T15:44:52;2.38;;;1.15;;